Time;durP1;ratioP1;P1;durP2;ratioP2;P2;SDS_P1;SDS_P2;PMS_P1;PMS_P2;Temp;Humidity;BMP_temperature;BMP_pressure;BME280_temperature;BME280_humidity;BME280_pressure;Samples;Min_cycle;Max_cycle;Signal;HPM_P1;HPM_P2
2022/09/15 00:01:22;;;;;;;8.70;4.60;;;19.70;99.90;;;19.06;100.00;100567.72;5222265;22;20098;-74
2022/09/15 00:03:23;;;;;;;5.53;3.50;;;19.60;99.90;;;19.03;100.00;100575.34;5276035;22;20523;-74
2022/09/15 00:05:24;;;;;;;3.92;3.20;;;19.60;99.90;;;18.95;100.00;100565.72;5276142;22;20119;-74
2022/09/15 00:07:26;;;;;;;7.38;3.67;;;19.60;99.90;;;18.90;100.00;100559.41;5276162;22;20368;-74
2022/09/15 00:09:27;;;;;;;5.10;2.85;;;19.60;99.90;;;18.92;100.00;100563.50;5248546;22;20370;-74
2022/09/15 00:11:32;;;;;;;4.53;3.10;;;19.60;99.90;;;18.95;100.00;100563.06;5276244;22;20029;-74
2022/09/15 00:13:35;;;;;;;4.78;3.15;;;19.60;99.90;;;18.96;100.00;100572.72;5247679;22;20444;-74
2022/09/15 00:15:36;;;;;;;4.25;2.58;;;19.60;99.90;;;18.92;100.00;100565.34;5275955;22;19998;-74
2022/09/15 00:17:37;;;;;;;4.22;2.35;;;19.60;99.90;;;18.90;100.00;100567.41;5248938;22;19998;-74
2022/09/15 00:19:38;;;;;;;4.18;2.50;;;19.60;99.90;;;18.96;100.00;100590.63;5275932;22;20334;-74
2022/09/15 00:21:41;;;;;;;3.22;2.22;;;19.60;99.90;;;18.88;100.00;100567.63;5248608;22;20027;-74
2022/09/15 00:23:43;;;;;;;4.47;2.60;;;19.60;99.90;;;18.86;100.00;100568.88;5275917;22;20009;-74
2022/09/15 00:25:51;;;;;;;4.07;2.72;;;19.60;99.90;;;18.83;100.00;100563.94;5248641;22;20042;-74
2022/09/15 00:27:52;;;;;;;3.67;2.72;;;19.60;99.90;;;18.92;100.00;100584.06;5275847;22;20010;-74
2022/09/15 00:29:53;;;;;;;5.00;2.25;;;19.60;99.90;;;18.93;100.00;100585.69;5248436;22;20014;-74
2022/09/15 00:31:54;;;;;;;5.22;3.22;;;19.60;99.90;;;18.99;100.00;100598.22;5248329;22;20003;-74
2022/09/15 00:33:58;;;;;;;4.90;2.90;;;19.60;99.90;;;18.87;100.00;100575.84;5248531;22;20002;-74
2022/09/15 00:36:04;;;;;;;5.60;2.90;;;19.60;99.90;;;18.83;100.00;100572.78;5248666;22;20006;-74
2022/09/15 00:38:07;;;;;;;5.57;3.28;;;19.60;99.90;;;18.94;100.00;100598.84;5275974;22;20068;-74
2022/09/15 00:40:08;;;;;;;4.38;2.78;;;19.50;99.90;;;18.94;100.00;100600.69;5248229;22;20011;-74
2022/09/15 00:42:18;;;;;;;6.20;3.25;;;19.50;99.90;;;18.79;100.00;100577.72;5247894;22;20021;-74
2022/09/15 00:44:22;;;;;;;5.97;4.10;;;19.50;99.90;;;18.85;100.00;100594.78;5248206;22;20011;-74
2022/09/15 00:46:37;;;;;;;5.32;3.47;;;19.50;99.90;;;18.85;100.00;100591.28;5275895;22;20334;-74
2022/09/15 00:49:12;;;;;;;4.97;3.60;;;19.40;99.90;;;18.77;100.00;100590.50;5248821;22;20009;-74
2022/09/15 00:51:18;;;;;;;5.82;4.13;;;19.40;99.90;;;18.75;100.00;100589.91;5207628;22;20035;-74
2022/09/15 00:53:20;;;;;;;7.28;4.57;;;19.40;99.90;;;18.64;100.00;100584.38;5248484;22;20340;-74
2022/09/15 00:55:46;;;;;;;6.00;3.63;;;19.30;99.90;;;18.61;100.00;100577.63;5248804;22;20026;-74
2022/09/15 00:57:54;;;;;;;6.75;4.00;;;19.30;99.90;;;18.60;100.00;100583.19;5247792;22;20072;-74
2022/09/15 00:59:59;;;;;;;7.53;3.47;;;19.30;99.90;;;18.52;100.00;100570.88;5248588;22;20002;-74
2022/09/15 01:02:22;;;;;;;6.32;4.43;;;19.30;99.90;;;18.53;100.00;100582.38;5248994;22;20518;-74
2022/09/15 01:04:23;;;;;;;6.78;4.70;;;19.20;99.90;;;18.45;100.00;100578.06;5248496;22;19999;-74
2022/09/15 01:06:42;;;;;;;7.53;4.80;;;19.20;99.90;;;18.43;100.00;100569.44;5247937;22;20083;-74
2022/09/15 01:09:20;;;;;;;5.07;3.90;;;19.20;99.90;;;18.57;100.00;100603.13;5223240;22;20358;-74
2022/09/15 01:11:21;;;;;;;6.03;3.95;;;19.20;99.90;;;18.39;100.00;100576.25;5250300;22;20005;-74
2022/09/15 01:13:22;;;;;;;7.32;4.93;;;19.20;99.90;;;18.51;100.00;100598.63;5275356;22;20060;-74
2022/09/15 01:15:37;;;;;;;10.40;4.53;;;19.20;99.90;;;18.36;100.00;100574.00;5221928;22;20003;-74
2022/09/15 01:18:19;;;;;;;8.48;4.15;;;19.10;99.90;;;18.56;100.00;100611.34;5249955;22;19999;-74
2022/09/15 01:21:17;;;;;;;6.15;3.72;;;19.10;99.90;;;18.49;100.00;100592.66;5192802;22;20007;-74
2022/09/15 01:24:00;;;;;;;6.53;4.63;;;19.10;99.90;;;18.49;100.00;100605.19;5245858;22;20007;-74
2022/09/15 01:26:26;;;;;;;5.15;3.30;;;19.10;99.90;;;18.51;100.00;100603.97;5246704;22;20006;-74
2022/09/15 01:29:01;;;;;;;4.57;3.00;;;19.10;99.90;;;18.48;100.00;100607.03;5276934;22;19998;-74
2022/09/15 01:31:24;;;;;;;10.30;5.18;;;19.10;99.90;;;18.23;100.00;100577.53;5277449;22;20066;-74
2022/09/15 01:33:48;;;;;;;8.65;4.20;;;19.00;99.90;;;18.20;100.00;100582.44;5249375;22;20453;-74
2022/09/15 01:36:00;;;;;;;4.20;3.40;;;19.00;99.90;;;18.33;100.00;100617.16;5252659;22;20435;-74
2022/09/15 01:38:36;;;;;;;4.97;3.90;;;18.90;99.90;;;18.28;100.00;100616.13;5249364;22;20455;-74
2022/09/15 01:41:07;;;;;;;6.95;4.47;;;18.90;99.90;;;18.09;100.00;100575.09;5264851;22;20020;-74
2022/09/15 01:43:10;;;;;;;5.32;3.83;;;18.80;99.90;;;18.30;100.00;100614.91;5253475;22;20007;-74
2022/09/15 01:45:22;;;;;;;8.02;4.20;;;18.90;99.90;;;18.27;100.00;100617.97;5249458;22;20399;-74
2022/09/15 01:47:27;;;;;;;6.63;3.90;;;18.90;99.90;;;18.23;100.00;100595.38;5250230;22;20025;-74
2022/09/15 01:49:40;;;;;;;5.82;3.95;;;18.90;99.90;;;18.34;100.00;100607.28;5277193;22;20308;-74
2022/09/15 01:51:42;;;;;;;7.50;3.47;;;18.90;99.90;;;18.23;100.00;100585.53;5250251;22;20007;-74
2022/09/15 01:53:45;;;;;;;5.85;3.78;;;19.00;99.90;;;18.25;100.00;100594.16;5249185;22;20006;-74
2022/09/15 01:56:07;;;;;;;8.13;3.97;;;19.00;99.90;;;18.31;100.00;100592.47;5249492;22;20451;-74
2022/09/15 01:58:08;;;;;;;6.10;3.25;;;19.00;99.90;;;18.27;100.00;100593.94;5225530;22;20230;-74
2022/09/15 02:00:10;;;;;;;8.07;4.40;;;19.00;99.90;;;18.41;100.00;100627.59;5277047;22;20043;-74
2022/09/15 02:02:22;;;;;;;7.10;4.97;;;19.00;99.90;;;18.36;100.00;100611.38;5223447;22;20018;-74
2022/09/15 02:04:47;;;;;;;6.20;3.63;;;19.00;99.90;;;18.45;100.00;100620.81;5277530;22;20002;-74
2022/09/15 02:07:10;;;;;;;8.52;4.20;;;19.00;99.90;;;18.50;100.00;100626.38;5277300;22;20006;-74
2022/09/15 02:09:20;;;;;;;6.93;4.20;;;19.10;99.90;;;18.35;100.00;100606.25;5250451;22;20002;-74
2022/09/15 02:11:27;;;;;;;6.90;5.13;;;19.00;99.90;;;18.32;100.00;100606.66;5224811;22;20505;-74
2022/09/15 02:14:11;;;;;;;8.27;4.57;;;19.00;99.90;;;18.45;100.00;100623.47;5249737;22;20450;-74
2022/09/15 02:42:17;;;;;;;;;;;;;;;;;;;;;
2022/09/15 04:07:51;;;;;;;;;;;;;;;;;;;;;
2022/09/15 04:42:06;;;;;;;;;;;;;;;;;;;;;
2022/09/15 05:30:04;;;;;;;;;;;;;;;;;;;;;
2022/09/15 06:26:37;;;;;;;10.18;7.53;;;18.50;99.90;;;17.73;100.00;100743.66;4962335;23;20015;-74
2022/09/15 06:28:43;;;;;;;11.75;7.07;;;18.50;99.90;;;17.92;100.00;100763.38;5078768;22;20038;-74
2022/09/15 06:30:48;;;;;;;8.85;6.55;;;18.50;99.90;;;17.76;100.00;100742.41;5223383;22;20011;-74
2022/09/15 06:32:49;;;;;;;10.30;7.18;;;18.50;99.90;;;17.72;100.00;100762.50;5224671;22;20003;-74
2022/09/15 06:34:49;;;;;;;9.30;6.50;;;18.50;99.90;;;17.74;100.00;100776.50;5223124;22;20007;-74
2022/09/15 06:36:50;;;;;;;13.18;6.40;;;18.40;99.90;;;17.59;100.00;100758.78;5224754;22;20003;-74
2022/09/15 06:38:51;;;;;;;6.90;5.38;;;18.40;99.90;;;17.61;100.00;100766.59;5260512;22;20040;-74
2022/09/15 06:40:58;;;;;;;12.50;6.85;;;18.30;99.90;;;17.43;100.00;100759.13;5249057;22;20002;-74
2022/09/15 06:42:59;;;;;;;9.77;5.90;;;18.20;99.90;;;17.35;100.00;100761.94;5248815;22;20010;-74
2022/09/15 06:45:00;;;;;;;8.57;5.82;;;18.20;99.90;;;17.38;100.00;100780.22;5276612;22;20006;-74
2022/09/15 06:47:01;;;;;;;9.27;6.28;;;18.10;99.90;;;17.44;100.00;100783.97;5248618;22;20045;-74
2022/09/15 06:49:02;;;;;;;7.57;5.00;;;18.10;99.90;;;17.55;100.00;100813.56;5249028;22;20007;-74
2022/09/15 06:51:05;;;;;;;10.32;6.57;;;18.10;99.90;;;17.36;100.00;100794.78;5276513;22;20002;-74
2022/09/15 06:53:06;;;;;;;11.13;6.57;;;18.10;99.90;;;17.36;100.00;100784.94;5222964;22;20003;-74
2022/09/15 06:55:08;;;;;;;13.15;7.57;;;18.10;99.90;;;17.40;100.00;100796.88;5276606;22;20013;-74
2022/09/15 06:57:09;;;;;;;8.95;6.47;;;18.10;99.90;;;17.39;100.00;100795.19;5248792;22;20080;-74
2022/09/15 06:59:15;;;;;;;13.23;6.97;;;18.10;99.90;;;17.34;100.00;100781.66;5249012;22;20018;-74
2022/09/15 07:01:25;;;;;;;12.93;7.85;;;18.10;99.90;;;17.51;100.00;100824.78;5276513;22;19998;-74
2022/09/15 07:03:26;;;;;;;12.38;7.20;;;18.10;99.90;;;17.49;100.00;100816.19;5276721;22;20074;-74
2022/09/15 07:05:28;;;;;;;10.20;7.30;;;18.10;99.90;;;17.41;100.00;100790.47;5276743;22;20051;-74
2022/09/15 07:07:29;;;;;;;9.70;7.13;;;18.20;99.90;;;17.59;100.00;100811.34;5276318;22;20010;-74
2022/09/15 07:09:30;;;;;;;8.50;7.20;;;18.20;99.90;;;17.67;100.00;100829.81;5276364;22;20006;-74
2022/09/15 07:11:32;;;;;;;12.30;7.35;;;18.20;99.90;;;17.40;100.00;100810.19;5248414;22;20014;-74
2022/09/15 07:13:33;;;;;;;10.15;7.35;;;18.20;99.90;;;17.38;100.00;100809.56;5276515;22;20304;-74
2022/09/15 07:15:34;;;;;;;10.95;7.15;;;18.20;99.90;;;17.37;100.00;100815.09;5276342;22;19998;-74
2022/09/15 07:17:36;;;;;;;9.77;6.22;;;18.10;99.90;;;17.36;100.00;100803.59;5248862;22;20010;-74
2022/09/15 07:19:37;;;;;;;6.65;5.00;;;18.10;99.90;;;17.50;100.00;100826.63;5248505;22;20003;-74
2022/09/15 07:21:38;;;;;;;10.05;5.05;;;18.20;99.90;;;17.61;100.00;100814.63;5276211;22;20013;-74
2022/09/15 07:23:39;;;;;;;6.63;4.95;;;18.30;99.90;;;17.92;100.00;100838.13;5276312;22;20006;-74
2022/09/15 07:25:42;;;;;;;6.65;4.55;;;18.40;99.90;;;18.10;100.00;100833.81;5248407;22;20013;-74
2022/09/15 07:27:43;;;;;;;6.03;4.70;;;18.60;99.90;;;18.23;100.00;100812.50;5249002;22;20055;-74
2022/09/15 07:29:44;;;;;;;7.78;4.55;;;18.80;99.90;;;18.54;100.00;100822.63;5222561;22;20007;-74
2022/09/15 07:31:45;;;;;;;9.55;5.85;;;19.00;99.90;;;18.60;100.00;100823.66;5276403;22;20085;-74
2022/09/15 07:33:47;;;;;;;8.57;5.60;;;19.20;99.90;;;18.64;100.00;100817.66;5248977;22;20443;-74
2022/09/15 07:35:48;;;;;;;6.00;4.22;;;19.30;99.90;;;18.87;100.00;100845.81;5223170;22;20007;-74
2022/09/15 07:37:50;;;;;;;8.77;4.90;;;19.40;99.90;;;18.87;100.00;100853.84;5276222;22;20043;-74
2022/09/15 07:39:51;;;;;;;7.03;4.55;;;19.40;99.90;;;18.75;100.00;100846.47;5276238;22;20002;-75
2022/09/15 07:41:52;;;;;;;6.28;3.55;;;19.40;99.90;;;18.67;100.00;100832.47;5248304;22;20010;-74
2022/09/15 07:43:57;;;;;;;9.20;4.70;;;19.40;99.90;;;18.51;100.00;100832.88;5248733;22;20003;-74
2022/09/15 07:45:59;;;;;;;7.60;4.97;;;19.30;99.90;;;18.55;100.00;100866.16;5222827;22;20011;-74
2022/09/15 07:48:01;;;;;;;8.57;5.20;;;19.20;99.90;;;18.24;100.00;100850.72;5276205;22;20371;-74
2022/09/15 07:50:02;;;;;;;8.93;4.53;;;19.10;99.90;;;18.36;100.00;100857.09;5249055;22;20046;-74
2022/09/15 07:52:03;;;;;;;12.45;7.43;;;19.10;99.90;;;18.29;100.00;100858.09;5276195;22;20494;-74
2022/09/15 07:54:04;;;;;;;7.72;5.88;;;19.10;99.90;;;18.40;100.00;100852.97;5248718;22;19999;-74
2022/09/15 07:56:05;;;;;;;7.10;5.65;;;19.10;99.90;;;18.52;100.00;100855.88;5248622;22;20010;-74
2022/09/15 07:58:06;;;;;;;15.88;7.70;;;19.20;99.90;;;18.53;100.00;100847.69;5276060;22;19998;-74
2022/09/15 08:00:08;;;;;;;12.13;9.23;;;19.40;99.90;;;18.62;100.00;100870.50;5248758;22;20010;-74
2022/09/15 08:02:17;;;;;;;13.77;8.50;;;19.40;99.90;;;18.59;100.00;100854.88;5248911;22;20007;-74
2022/09/15 08:04:18;;;;;;;10.57;8.65;;;19.40;99.90;;;18.65;100.00;100859.41;5276141;22;20002;-74
2022/09/15 08:06:22;;;;;;;12.75;8.68;;;19.40;99.90;;;18.67;100.00;100843.97;5276080;22;20005;-74
2022/09/15 08:08:23;;;;;;;11.43;7.60;;;19.40;99.90;;;18.63;100.00;100856.13;5248497;22;20002;-74
2022/09/15 08:10:24;;;;;;;12.52;7.90;;;19.40;99.90;;;18.73;100.00;100877.06;5249124;22;20019;-74
2022/09/15 08:12:25;;;;;;;12.23;8.57;;;19.30;99.90;;;18.53;100.00;100879.75;5248117;22;20010;-74
2022/09/15 08:14:26;;;;;;;10.23;7.88;;;19.20;99.90;;;18.58;100.00;100890.63;5248532;22;20012;-74
2022/09/15 08:16:27;;;;;;;15.65;8.20;;;19.20;99.90;;;18.25;100.00;100871.84;5276014;22;20434;-74
2022/09/15 08:18:28;;;;;;;9.48;7.40;;;19.10;99.90;;;18.37;100.00;100893.44;5249346;22;20386;-74
2022/09/15 08:20:30;;;;;;;9.57;6.65;;;19.10;99.90;;;18.35;100.00;100892.84;5275934;22;20002;-74
2022/09/15 08:22:31;;;;;;;17.88;10.02;;;19.00;99.90;;;18.35;100.00;100892.00;5248596;22;20071;-74
2022/09/15 08:24:33;;;;;;;10.48;6.97;;;19.00;99.90;;;18.52;100.00;100909.31;5248591;22;20007;-74
2022/09/15 08:26:37;;;;;;;11.02;8.13;;;19.00;99.90;;;18.29;100.00;100906.16;5248451;22;20010;-74
2022/09/15 08:28:38;;;;;;;11.52;7.25;;;19.00;99.90;;;18.27;100.00;100909.06;5248993;22;20466;-74
2022/09/15 08:30:39;;;;;;;9.90;8.52;;;19.00;99.90;;;18.35;100.00;100911.53;5275952;22;20006;-74
2022/09/15 08:32:40;;;;;;;14.82;7.28;;;19.00;99.90;;;18.49;100.00;100899.03;5276120;22;20081;-74
2022/09/15 08:34:40;;;;;;;13.20;7.28;;;19.10;99.90;;;18.53;100.00;100911.81;5276973;22;20009;-74
2022/09/15 08:36:42;;;;;;;15.07;8.63;;;19.20;99.90;;;18.45;100.00;100895.13;5223121;22;20031;-74
2022/09/15 08:38:44;;;;;;;10.35;7.00;;;19.20;99.90;;;18.58;100.00;100913.84;5277544;22;20011;-74
2022/09/15 08:40:46;;;;;;;9.73;6.82;;;19.30;99.90;;;18.77;100.00;100916.56;5277685;22;19998;-74
2022/09/15 08:42:50;;;;;;;9.57;6.32;;;19.40;99.90;;;18.84;100.00;100900.53;5277356;22;20013;-74
2022/09/15 08:45:27;;;;;;;8.77;5.80;;;19.50;99.90;;;18.92;100.00;100912.84;5250451;22;20003;-74
2022/09/15 08:47:46;;;;;;;8.95;5.43;;;19.60;99.90;;;18.91;100.00;100908.53;5224378;22;20013;-74
2022/09/15 08:50:04;;;;;;;11.82;5.70;;;19.60;99.90;;;18.97;100.00;100915.72;5249793;22;20041;-74
2022/09/15 08:52:14;;;;;;;8.88;6.60;;;19.60;99.90;;;18.74;100.00;100887.56;5249824;22;20010;-74
2022/09/15 08:54:28;;;;;;;13.15;6.18;;;19.60;99.90;;;18.65;100.00;100887.97;5250866;22;20046;-74
2022/09/15 08:56:29;;;;;;;12.80;6.80;;;19.50;99.90;;;18.52;100.00;100899.47;5275820;22;19998;-74
2022/09/15 08:58:36;;;;;;;8.48;5.78;;;19.40;99.90;;;18.63;100.00;100912.22;5277587;22;20006;-74
2022/09/15 09:00:39;;;;;;;8.05;6.03;;;19.30;99.90;;;18.60;100.00;100901.97;5249693;22;20010;-75
2022/09/15 09:03:25;;;;;;;8.48;5.63;;;19.30;99.90;;;18.56;100.00;100922.09;5276065;22;20067;-74
2022/09/15 09:05:44;;;;;;;9.13;6.68;;;19.20;99.90;;;18.52;100.00;100926.19;5277589;22;20007;-74
2022/09/15 09:08:06;;;;;;;7.82;4.97;;;19.20;99.90;;;18.52;100.00;100918.16;5277939;22;20501;-74
2022/09/15 09:10:14;;;;;;;8.32;5.30;;;19.20;99.90;;;18.51;100.00;100905.84;5249642;22;20010;-74
2022/09/15 09:12:34;;;;;;;7.97;6.15;;;19.20;99.90;;;18.68;100.00;100914.28;5276952;22;20002;-74
2022/09/15 09:15:04;;;;;;;5.53;4.43;;;19.30;99.90;;;18.70;100.00;100902.34;5277749;22;19998;-74
2022/09/15 09:17:45;;;;;;;6.93;5.28;;;19.40;99.90;;;18.89;100.00;100930.13;5225494;22;20035;-74
2022/09/15 09:20:14;;;;;;;9.45;4.85;;;19.50;99.90;;;18.83;100.00;100912.22;5249933;22;20032;-74
2022/09/15 09:22:22;;;;;;;8.20;5.28;;;19.60;99.90;;;19.10;100.00;100939.78;5223782;22;20007;-74
2022/09/15 09:24:43;;;;;;;7.90;4.82;;;19.70;99.90;;;19.44;100.00;100944.94;5224000;22;20003;-74
2022/09/15 09:26:52;;;;;;;6.28;4.80;;;19.90;99.90;;;19.59;99.24;100942.00;5249159;22;20405;-74
2022/09/15 09:29:04;;;;;;;5.43;4.07;;;20.10;99.90;;;19.73;97.09;100932.91;5249283;22;20089;-74
2022/09/15 09:31:14;;;;;;;7.07;3.97;;;20.30;99.90;;;20.02;95.63;100944.94;5250665;22;20002;-74
2022/09/15 09:33:30;;;;;;;7.80;4.07;;;20.40;99.90;;;19.99;95.94;100929.28;5250619;22;20396;-74
2022/09/15 09:35:35;;;;;;;10.07;4.57;;;20.60;99.90;;;20.18;94.93;100947.97;5277278;22;20002;-74
2022/09/15 09:37:35;;;;;;;5.75;4.40;;;20.60;99.90;;;19.94;94.75;100929.94;5277286;22;20509;-74
2022/09/15 09:39:37;;;;;;;7.65;4.30;;;20.70;99.90;;;19.87;94.07;100927.28;5277296;22;19998;-74
2022/09/15 09:41:39;;;;;;;7.13;3.85;;;20.60;99.90;;;19.81;92.52;100928.13;5223353;22;20010;-74
2022/09/15 09:43:46;;;;;;;6.90;3.15;;;20.60;99.90;;;19.99;92.32;100945.38;5249678;22;20077;-74
2022/09/15 09:45:48;;;;;;;6.10;2.70;;;20.70;99.90;;;20.22;92.26;100943.81;5249487;22;20003;-74
2022/09/15 09:47:49;;;;;;;4.18;3.20;;;20.90;99.90;;;20.50;89.00;100926.56;5249583;22;20030;-74
2022/09/15 09:49:49;;;;;;;6.75;2.80;;;21.20;99.90;;;21.02;86.00;100944.97;5249519;22;20010;-74
2022/09/15 09:51:53;;;;;;;5.72;2.85;;;21.60;99.90;;;21.32;84.09;100929.03;5249459;22;20466;-74
2022/09/15 09:53:54;;;;;;;5.07;4.05;;;22.00;99.90;;;21.55;81.52;100937.25;5249267;22;20138;-74
2022/09/15 09:56:16;;;;;;;6.72;3.83;;;22.20;99.90;;;21.20;81.77;100954.97;5249243;22;20100;-74
2022/09/15 09:58:22;;;;;;;8.25;3.83;;;22.20;99.90;;;20.80;84.76;100941.84;5276834;22;20058;-74
2022/09/15 10:00:34;;;;;;;7.25;3.20;;;22.00;99.90;;;20.86;86.29;100942.81;5250177;22;19999;-74
2022/09/15 10:02:46;;;;;;;5.20;2.28;;;21.90;99.90;;;21.26;85.77;100944.16;5249398;22;20123;-74
2022/09/15 10:05:10;;;;;;;6.40;3.53;;;22.00;99.90;;;21.57;82.46;100955.81;5249370;22;20535;-74
2022/09/15 10:07:14;;;;;;;6.30;3.25;;;22.20;99.90;;;21.49;81.71;100943.53;5275774;22;20006;-74
2022/09/15 10:09:17;;;;;;;7.60;3.78;;;22.30;99.90;;;21.38;79.56;100937.03;5249482;22;20006;-74
2022/09/15 10:11:18;;;;;;;5.72;3.88;;;22.40;99.90;;;21.24;78.58;100942.72;5223500;22;20035;-74
2022/09/15 10:13:21;;;;;;;5.10;2.60;;;22.30;99.90;;;21.27;80.81;100955.69;5223472;22;20015;-74
2022/09/15 10:15:30;;;;;;;4.47;3.72;;;22.20;99.90;;;21.29;80.08;100959.81;5249140;22;20006;-74
2022/09/15 10:17:42;;;;;;;6.03;3.65;;;22.30;99.90;;;21.01;80.99;100937.13;5277023;22;20452;-75
2022/09/15 10:19:56;;;;;;;7.07;4.00;;;22.20;99.90;;;20.91;81.62;100946.47;5276996;22;20006;-74
2022/09/15 10:22:00;;;;;;;4.43;3.10;;;22.10;99.90;;;21.24;82.05;100961.50;5251356;22;20005;-74
2022/09/15 10:24:38;;;;;;;;;;;22.10;99.90;;;21.57;79.93;100961.19;5277323;22;20006;-74
2022/09/15 10:26:41;;;;;;;4.75;3.15;;;22.20;99.90;;;21.70;80.35;100945.78;5276901;22;19948;-74
2022/09/15 10:28:44;;;;;;;4.97;3.38;;;22.40;99.90;;;21.79;79.09;100957.84;5249398;22;20003;-74
2022/09/15 10:31:04;;;;;;;4.83;2.53;;;22.50;99.90;;;22.04;78.04;100958.59;5276585;22;19998;-74
2022/09/15 10:33:43;;;;;;;4.28;2.90;;;22.50;99.90;;;22.40;75.42;100941.59;5276641;22;20051;-74
2022/09/15 10:35:45;;;;;;;7.60;3.10;;;22.90;99.90;;;22.43;75.04;100953.78;5172886;22;20419;-74
2022/09/15 10:38:29;;;;;;;7.60;4.43;;;23.10;99.90;;;21.74;75.45;100938.09;5249285;22;20003;-74
2022/09/15 10:41:08;;;;;;;5.70;3.53;;;23.00;99.90;;;21.27;76.91;100939.59;5174099;22;20095;-75
2022/09/15 10:43:52;;;;;;;7.97;3.17;;;22.50;99.90;;;20.97;77.49;100923.31;5252019;22;20007;-74
2022/09/15 10:46:24;;;;;;;4.82;2.38;;;22.10;99.90;;;20.81;79.31;100923.91;5173755;22;20034;-74
2022/09/15 10:48:54;;;;;;;3.88;2.60;;;21.80;99.90;;;21.12;77.84;100942.63;5253404;22;20119;-74
2022/09/15 10:51:05;;;;;;;8.23;2.58;;;21.80;99.90;;;21.52;73.91;100938.53;5276700;22;20002;-74
2022/09/15 10:53:27;;;;;;;3.95;1.55;;;22.10;99.90;;;21.61;72.00;100924.81;5276610;22;20031;-75
2022/09/15 10:55:40;;;;;;;4.72;2.35;;;22.20;99.90;;;21.80;72.27;100940.69;5251462;22;20003;-74
2022/09/15 10:57:56;;;;;;;3.27;2.00;;;22.30;99.90;;;21.75;70.10;100937.84;5275746;22;20013;-74
2022/09/15 11:00:11;;;;;;;5.55;1.77;;;22.40;99.90;;;21.83;71.25;100918.75;5276562;22;20441;-74
2022/09/15 11:03:02;;;;;;;6.80;2.35;;;22.40;99.90;;;22.15;70.27;100945.47;5249676;22;20003;-74
2022/09/15 11:05:41;;;;;;;6.40;2.65;;;22.60;99.90;;;22.17;70.93;100946.03;5276804;22;20002;-74
2022/09/15 11:08:26;;;;;;;5.60;2.35;;;22.70;99.90;;;22.23;70.96;100937.91;5252033;22;20098;-74
2022/09/15 11:10:30;;;;;;;5.57;2.33;;;22.90;99.90;;;21.97;68.50;100952.50;5248512;22;20013;-74
2022/09/15 11:12:43;;;;;;;4.35;1.65;;;22.80;99.90;;;21.71;69.19;100925.94;5276156;22;20010;-74
2022/09/15 11:14:53;;;;;;;3.27;1.60;;;22.70;99.90;;;21.76;69.41;100936.00;5249686;22;20003;-74
2022/09/15 11:16:57;;;;;;;4.57;2.00;;;22.60;99.90;;;21.80;67.79;100942.56;5276325;22;19999;-74
2022/09/15 11:19:05;;;;;;;;;;;22.60;99.90;;;21.64;68.41;100943.16;5277005;22;20419;-74
2022/09/15 11:21:46;;;;;;;2.60;1.60;;;22.60;99.90;;;22.08;66.39;100915.97;5276861;22;19905;-74
2022/09/15 11:23:59;;;;;;;4.82;1.90;;;22.70;99.90;;;22.68;64.56;100932.94;5250126;22;20416;-74
2022/09/15 11:26:33;;;;;;;5.20;1.80;;;23.20;99.90;;;23.10;64.18;100928.31;5249956;22;20083;-74
2022/09/15 11:28:45;;;;;;;5.20;2.20;;;23.70;99.90;;;22.69;65.83;100931.06;5276368;22;20024;-74
2022/09/15 11:31:37;;;;;;;5.68;2.70;;;23.90;99.90;;;22.43;66.44;100954.56;5249613;22;20010;-74
2022/09/15 11:33:52;;;;;;;3.00;1.52;;;23.50;99.90;;;22.25;68.39;100933.09;5246626;22;20006;-74
2022/09/15 11:36:16;;;;;;;3.95;1.80;;;23.20;99.90;;;22.08;68.75;100942.03;5249733;22;20002;-74
2022/09/15 11:38:35;;;;;;;2.90;2.13;;;22.90;99.90;;;21.91;67.23;100937.28;5249322;22;20058;-74
2022/09/15 11:40:44;;;;;;;4.50;2.25;;;22.80;99.90;;;22.37;67.46;100946.63;5248053;22;20043;-74
2022/09/15 11:43:15;;;;;;;5.20;1.90;;;22.90;99.90;;;22.91;65.38;100927.59;5249509;22;19999;-74
2022/09/15 11:45:24;;;;;;;4.85;2.05;;;23.40;99.90;;;23.19;63.95;100913.44;5250805;22;20513;-74
2022/09/15 11:47:46;;;;;;;5.90;2.15;;;23.70;99.90;;;23.17;64.01;100942.47;5276496;22;20003;-74
2022/09/15 11:50:20;;;;;;;3.90;2.10;;;23.90;99.90;;;22.25;65.52;100929.63;5223208;22;20455;-74
2022/09/15 11:53:11;;;;;;;4.55;1.95;;;23.50;99.90;;;22.04;67.97;100957.81;5251304;22;20006;-74
2022/09/15 11:55:37;;;;;;;4.07;1.80;;;23.00;99.90;;;21.68;69.33;100942.50;5263316;22;20341;-75
2022/09/15 11:58:21;;;;;;;5.68;1.98;;;22.60;99.90;;;21.77;68.90;100951.91;5275757;22;20005;-74
2022/09/15 12:00:22;;;;;;;4.00;1.92;;;22.40;99.90;;;21.76;68.07;100938.69;5276389;22;20011;-74
2022/09/15 12:02:50;;;;;;;5.35;2.03;;;22.40;99.90;;;22.02;66.48;100938.38;5276516;22;20006;-74
2022/09/15 12:05:19;;;;;;;3.75;1.83;;;22.50;99.90;;;22.10;61.60;100948.84;5223736;22;20351;-74
2022/09/15 12:07:27;;;;;;;2.90;1.65;;;22.60;98.80;;;22.02;62.47;100943.75;5249873;22;20019;-74
2022/09/15 12:09:28;;;;;;;4.88;2.05;;;22.70;99.10;;;22.05;62.58;100943.31;5276176;22;19998;-74
2022/09/15 12:11:34;;;;;;;3.97;2.42;;;22.80;99.20;;;22.08;62.81;100926.72;5275655;22;20082;-74
2022/09/15 12:13:36;;;;;;;5.72;2.55;;;22.90;99.20;;;22.47;62.34;100942.31;5248842;22;20006;-74
2022/09/15 12:15:37;;;;;;;6.82;2.78;;;23.10;99.30;;;22.75;61.70;100955.19;5248564;22;20477;-74
2022/09/15 12:17:53;;;;;;;3.40;2.10;;;23.40;99.00;;;23.03;61.22;100927.59;5248562;22;20085;-74
2022/09/15 12:20:22;;;;;;;4.30;2.30;;;23.70;98.80;;;22.73;61.09;100940.31;5223414;22;20007;-74
2022/09/15 12:22:53;;;;;;;7.55;2.55;;;23.70;98.40;;;22.38;63.10;100969.75;5276136;22;20009;-74
2022/09/15 12:25:27;;;;;;;3.90;2.17;;;23.30;98.70;;;21.72;63.87;100954.41;5248277;22;20010;-74
2022/09/15 12:27:29;;;;;;;3.17;2.22;;;22.90;98.80;;;21.64;64.74;100951.22;5249525;22;20077;-74
2022/09/15 12:29:38;;;;;;;3.17;1.75;;;22.70;99.10;;;21.90;65.63;100957.13;5248563;22;20007;-74
2022/09/15 12:31:39;;;;;;;3.60;2.17;;;22.60;99.80;;;22.12;64.97;100948.59;5222821;22;20564;-74
2022/09/15 12:34:04;;;;;;;2.67;1.85;;;22.70;99.90;;;22.48;60.97;100943.16;5274051;22;20018;-74
2022/09/15 12:36:49;;;;;;;5.22;2.85;;;22.90;98.80;;;22.56;60.52;100957.06;5274668;22;20487;-74
2022/09/15 12:38:51;;;;;;;6.47;3.08;;;23.20;98.10;;;23.11;59.58;100946.94;5275950;22;20063;-74
2022/09/15 12:40:58;;;;;;;4.78;2.30;;;23.60;98.10;;;23.96;57.81;100954.47;5248663;22;20483;-74
2022/09/15 12:43:10;;;;;;;7.53;2.92;;;24.10;97.70;;;23.79;59.35;100951.72;5248096;22;20010;-74
2022/09/15 12:45:21;;;;;;;3.40;2.10;;;24.40;97.80;;;23.84;59.56;100959.06;5275937;22;20002;-74
2022/09/15 12:47:35;;;;;;;4.82;1.75;;;24.60;97.70;;;23.42;60.18;100955.72;5276192;22;20032;-74
2022/09/15 12:49:45;;;;;;;5.72;2.92;;;24.40;97.60;;;23.07;61.11;100958.38;5248314;22;20048;-74
2022/09/15 12:51:48;;;;;;;5.55;2.85;;;24.00;97.70;;;22.48;61.44;100951.22;5249212;22;20006;-74
2022/09/15 12:53:59;;;;;;;3.40;2.00;;;23.60;97.60;;;22.27;62.69;100957.91;5248615;22;20059;-74
2022/09/15 12:56:09;;;;;;;4.72;2.67;;;23.20;98.10;;;22.11;63.08;100936.19;5223387;22;19999;-74
2022/09/15 12:58:18;;;;;;;4.60;3.13;;;23.00;98.50;;;22.28;60.43;100937.22;5222608;22;20006;-74
2022/09/15 13:00:19;;;;;;;2.47;1.83;;;23.10;97.50;;;22.79;59.77;100956.34;5248203;22;20010;-74
2022/09/15 13:02:47;;;;;;;4.88;1.83;;;23.30;97.60;;;23.56;58.84;100935.59;5275775;22;20038;-74
2022/09/15 13:04:56;;;;;;;8.63;2.65;;;23.80;97.70;;;23.88;56.32;100952.97;5275584;22;20006;-74
2022/09/15 13:07:18;;;;;;;4.38;2.38;;;24.30;96.80;;;23.99;55.61;100951.28;5276008;22;20021;-74
2022/09/15 13:09:27;;;;;;;3.67;2.22;;;24.60;95.90;;;23.62;56.73;100929.25;5275899;22;20023;-74